< < Back
Terminal Aerodrome Forecast


Current Version              Previous Versions:   1  2  3  4  5  6  7  8  9  

Terminal Aerodrome Forecast

394
FTUS42 KFFC 201733
TAFCSG
TAF
KCSG 201733Z 2018/2118 09005KT 5SM BR OVC007
     FM202000 08005KT P6SM OVC015
     FM210600 06004KT 6SM BR OVC015
     FM211000 06004KT 4SM BR OVC005
     FM211700 08006KT P6SM OVC015=

Latest METAR

888
SAUS70 KWBC 210400 RRS
MTRCSG
METAR KCSG 210451Z AUTO 08005KT 9SM OVC010 11/09 A3017 RMK AO2 SLP217
T01060089 401170072


USA.gov is the U.S. government's official web portal to all federal, state and local government web resources and services.